createdAt,value
2023-06-22T00:02:36.655Z,49.16
2023-06-22T00:05:39.497Z,49.04
2023-06-22T00:08:43.031Z,48.54
2023-06-22T00:11:45.804Z,48.91
2023-06-22T00:14:49.968Z,48.81
2023-06-22T00:17:53.276Z,48.69
2023-06-22T00:20:58.805Z,48.51
2023-06-22T00:24:01.547Z,48.85
2023-06-22T00:27:06.405Z,48.96
2023-06-22T00:30:11.185Z,48.74
2023-06-22T00:33:13.972Z,48.68
2023-06-22T00:36:18.775Z,48.45
2023-06-22T00:39:21.533Z,49.12
2023-06-22T00:42:24.344Z,49.20
2023-06-22T00:45:29.183Z,49.01
2023-06-22T00:48:31.972Z,49.15
2023-06-22T00:51:34.770Z,49.15
2023-06-22T00:54:37.700Z,48.67
2023-06-22T00:57:40.482Z,48.79
2023-06-22T01:00:44.667Z,49.29
2023-06-22T01:03:47.578Z,49.39
2023-06-22T01:06:56.941Z,49.51
2023-06-22T01:10:01.554Z,48.84
2023-06-22T01:13:06.666Z,49.06
2023-06-22T01:16:13.533Z,48.98
2023-06-22T01:19:29.302Z,48.91
2023-06-22T01:22:33.050Z,49.29
2023-06-22T01:25:38.745Z,49.21
2023-06-22T01:28:47.704Z,49.22
2023-06-22T01:31:51.822Z,48.77
2023-06-22T01:34:54.749Z,49.37
2023-06-22T01:37:57.922Z,49.00
2023-06-22T01:41:00.891Z,49.37
2023-06-22T01:44:05.929Z,49.22
2023-06-22T01:47:09.264Z,48.85
2023-06-22T01:50:12.938Z,48.79
2023-06-22T01:53:15.743Z,48.68
2023-06-22T01:56:19.248Z,48.72
2023-06-22T01:59:27.665Z,48.24
2023-06-22T02:02:32.864Z,48.48
2023-06-22T02:05:37.218Z,48.35
2023-06-22T02:08:43.933Z,48.22
2023-06-22T02:11:47.929Z,48.60
2023-06-22T02:14:53.575Z,48.24
2023-06-22T02:17:56.642Z,48.43
2023-06-22T02:21:00.444Z,48.56
2023-06-22T02:24:03.220Z,48.36
2023-06-22T02:27:08.183Z,48.60
2023-06-22T02:30:12.575Z,48.71
2023-06-22T02:33:15.337Z,49.12
2023-06-22T02:36:25.079Z,48.85
2023-06-22T02:39:28.000Z,48.95
2023-06-22T02:42:30.675Z,48.59
2023-06-22T02:45:34.778Z,47.22
2023-06-22T02:48:37.512Z,46.49
2023-06-22T02:51:41.049Z,46.93
2023-06-22T02:54:46.328Z,45.61
2023-06-22T02:57:49.054Z,45.72
2023-06-22T03:00:54.301Z,46.51
2023-06-22T03:03:57.124Z,46.23
2023-06-22T03:07:02.522Z,46.41
2023-06-22T03:10:06.848Z,45.73
2023-06-22T03:13:09.546Z,45.50
2023-06-22T03:16:13.740Z,46.24
2023-06-22T03:19:16.543Z,45.90
2023-06-22T03:22:19.313Z,45.00
2023-06-22T03:25:22.084Z,45.14
2023-06-22T03:28:24.781Z,45.24
2023-06-22T03:31:28.927Z,45.46
2023-06-22T03:34:35.499Z,45.02
2023-06-22T03:37:38.326Z,45.49
2023-06-22T03:40:41.087Z,44.98
2023-06-22T03:43:43.841Z,45.35
2023-06-22T03:46:48.209Z,44.99
2023-06-22T03:49:50.973Z,45.27
2023-06-22T03:52:53.992Z,45.07
2023-06-22T03:55:56.751Z,45.12
2023-06-22T03:58:59.566Z,44.84
2023-06-22T04:02:03.756Z,45.04
2023-06-22T04:05:06.986Z,44.90
2023-06-22T04:08:09.895Z,45.81
2023-06-22T04:11:12.606Z,45.27
2023-06-22T04:14:15.487Z,45.37
2023-06-22T04:17:20.533Z,44.94
2023-06-22T04:20:23.438Z,44.90
2023-06-22T04:23:26.196Z,45.01
2023-06-22T04:26:28.892Z,45.58
2023-06-22T04:29:31.834Z,45.32
2023-06-22T04:32:37.039Z,45.13
2023-06-22T04:35:42.425Z,44.65
2023-06-22T04:38:45.535Z,44.67
2023-06-22T04:41:48.261Z,44.41
2023-06-22T04:44:51.070Z,44.83
2023-06-22T04:47:55.240Z,44.54
2023-06-22T04:51:04.181Z,44.83
2023-06-22T04:54:07.250Z,44.77
2023-06-22T04:57:11.384Z,44.70
2023-06-22T05:00:18.129Z,44.58
2023-06-22T05:03:22.468Z,44.57
2023-06-22T05:06:26.583Z,44.64
2023-06-22T05:09:29.540Z,44.51
2023-06-22T05:12:32.246Z,45.00
2023-06-22T05:15:40.931Z,44.73
2023-06-22T05:18:45.740Z,44.80
2023-06-22T05:21:48.570Z,44.80
2023-06-22T05:24:52.289Z,45.01
2023-06-22T05:27:55.071Z,45.13
2023-06-22T05:30:58.096Z,44.87
2023-06-22T05:34:02.216Z,45.06
2023-06-22T05:37:05.138Z,45.19
2023-06-22T05:40:08.758Z,45.21
2023-06-22T05:43:11.711Z,44.98
2023-06-22T05:46:14.495Z,45.28
2023-06-22T05:49:18.717Z,45.33
2023-06-22T05:52:21.473Z,45.08
2023-06-22T05:55:24.287Z,45.29
2023-06-22T05:58:27.060Z,44.59
2023-06-22T06:01:29.941Z,45.12
2023-06-22T06:04:34.080Z,45.19
2023-06-22T06:07:36.926Z,45.10
2023-06-22T06:10:39.802Z,45.31
2023-06-22T06:13:42.561Z,45.06
2023-06-22T06:16:45.312Z,44.92
2023-06-22T06:19:49.475Z,44.99
2023-06-22T06:22:52.429Z,44.46
2023-06-22T06:25:55.258Z,44.89
2023-06-22T06:28:58.576Z,44.50
2023-06-22T06:32:01.474Z,44.83
2023-06-22T06:35:06.252Z,44.16
2023-06-22T06:38:09.030Z,44.15
2023-06-22T06:41:11.813Z,43.99
2023-06-22T06:44:14.597Z,44.35
2023-06-22T06:47:18.084Z,44.21
2023-06-22T06:50:22.446Z,44.22
2023-06-22T06:53:25.186Z,44.50
2023-06-22T06:56:28.120Z,44.57
2023-06-22T06:59:31.387Z,44.56
2023-06-22T07:02:34.266Z,44.50
2023-06-22T07:05:38.457Z,44.64
2023-06-22T07:08:41.179Z,43.99
2023-06-22T07:11:43.966Z,44.42
2023-06-22T07:14:46.777Z,44.30
2023-06-22T07:17:49.556Z,43.89
2023-06-22T07:20:53.715Z,44.08
2023-06-22T07:23:57.568Z,43.95
2023-06-22T07:27:00.467Z,44.27
2023-06-22T07:30:03.275Z,44.66
2023-06-22T07:33:09.657Z,44.01
2023-06-22T07:36:14.096Z,42.61
2023-06-22T07:39:16.866Z,42.37
2023-06-22T07:42:20.245Z,43.79
2023-06-22T07:45:23.182Z,44.47
2023-06-22T07:48:25.944Z,44.05
2023-06-22T07:51:30.059Z,43.81
2023-06-22T07:54:32.814Z,42.88
2023-06-22T07:57:35.856Z,43.50
2023-06-22T08:00:38.712Z,42.96
2023-06-22T08:03:41.563Z,43.02
2023-06-22T08:06:45.974Z,43.81
2023-06-22T08:09:49.435Z,43.58
2023-06-22T08:12:52.911Z,43.92
2023-06-22T08:15:55.801Z,43.70
2023-06-22T08:18:58.927Z,43.63
2023-06-22T08:22:03.148Z,43.96
2023-06-22T08:25:06.381Z,42.52
2023-06-22T08:28:09.204Z,43.14
2023-06-22T08:31:13.505Z,43.29
2023-06-22T08:34:17.838Z,43.54
2023-06-22T08:37:24.927Z,43.69
2023-06-22T08:40:28.093Z,43.53
2023-06-22T08:43:30.823Z,43.41
2023-06-22T08:46:34.603Z,43.80
2023-06-22T08:49:37.419Z,43.93
2023-06-22T08:52:42.594Z,43.88
2023-06-22T08:55:46.240Z,43.81
2023-06-22T08:58:48.964Z,43.76
2023-06-22T09:01:51.789Z,44.20
2023-06-22T09:04:57.076Z,43.97
2023-06-22T09:08:01.391Z,43.96
2023-06-22T09:11:04.176Z,44.05
2023-06-22T09:14:07.585Z,43.53
2023-06-22T09:17:10.458Z,43.76
2023-06-22T09:20:13.598Z,43.80
2023-06-22T09:23:17.832Z,43.16
2023-06-22T09:26:20.716Z,43.61
2023-06-22T09:29:23.515Z,43.63
2023-06-22T09:32:26.356Z,43.85
2023-06-22T09:35:29.177Z,43.83
2023-06-22T09:38:33.319Z,44.49
2023-06-22T09:41:36.098Z,44.24
2023-06-22T09:44:38.956Z,44.33
2023-06-22T09:47:42.608Z,44.86
2023-06-22T09:50:45.489Z,44.88
2023-06-22T09:53:49.652Z,44.35
2023-06-22T09:56:52.518Z,44.79
2023-06-22T09:59:55.225Z,44.52
2023-06-22T10:03:01.246Z,44.63
2023-06-22T10:06:04.641Z,44.61
2023-06-22T10:09:08.865Z,44.79
2023-06-22T10:12:11.705Z,44.87
2023-06-22T10:15:14.512Z,44.99
2023-06-22T10:18:17.721Z,43.61
2023-06-22T10:21:20.500Z,44.29
2023-06-22T10:24:24.608Z,44.28
2023-06-22T10:27:27.400Z,44.88
2023-06-22T10:30:31.089Z,44.92
2023-06-22T10:33:33.874Z,44.68
2023-06-22T10:36:36.651Z,44.71
2023-06-22T10:39:40.837Z,45.20
2023-06-22T10:42:43.850Z,44.96
2023-06-22T10:45:46.552Z,44.49
2023-06-22T10:48:49.535Z,44.82
2023-06-22T10:51:52.264Z,44.46
2023-06-22T10:54:56.403Z,44.69
2023-06-22T10:57:59.159Z,44.33
2023-06-22T11:01:01.950Z,44.50
2023-06-22T11:04:05.150Z,44.26
2023-06-22T11:07:08.443Z,44.38
2023-06-22T11:10:12.798Z,44.33
2023-06-22T11:13:15.523Z,43.69
2023-06-22T11:16:18.319Z,43.97
2023-06-22T11:19:21.140Z,43.56
2023-06-22T11:22:23.920Z,43.86
2023-06-22T11:25:28.057Z,43.77
2023-06-22T11:28:30.792Z,43.50
2023-06-22T11:31:33.724Z,43.53
2023-06-22T11:34:36.767Z,43.37
2023-06-22T11:37:39.592Z,43.95
2023-06-22T11:40:43.748Z,43.72
2023-06-22T11:43:46.517Z,43.79
2023-06-22T11:46:49.588Z,43.41
2023-06-22T11:49:52.368Z,43.69
2023-06-22T11:52:55.170Z,43.50
2023-06-22T11:55:59.322Z,43.33
2023-06-22T11:59:02.042Z,43.17
2023-06-22T12:02:06.634Z,43.29
2023-06-22T12:05:09.843Z,43.68
2023-06-22T12:08:13.299Z,43.68
2023-06-22T12:11:17.446Z,43.62
2023-06-22T12:14:20.201Z,43.68
2023-06-22T12:17:23.054Z,43.28
2023-06-22T12:20:26.446Z,43.47
2023-06-22T12:23:29.269Z,43.28
2023-06-22T12:26:33.484Z,43.45
2023-06-22T12:29:36.291Z,43.47
2023-06-22T12:32:39.182Z,43.77
2023-06-22T12:35:42.096Z,43.65
2023-06-22T12:38:44.862Z,43.40
2023-06-22T12:41:49.107Z,43.92
2023-06-22T12:44:52.720Z,43.55
2023-06-22T12:47:56.494Z,43.96
2023-06-22T12:50:59.385Z,43.73
2023-06-22T12:54:02.169Z,43.42
2023-06-22T12:57:06.581Z,43.55
2023-06-22T13:00:11.458Z,43.95
2023-06-22T13:03:14.309Z,44.10
2023-06-22T13:06:17.089Z,43.47
2023-06-22T13:09:21.772Z,43.70
2023-06-22T13:12:26.178Z,43.94
2023-06-22T13:15:29.826Z,43.59
2023-06-22T13:18:32.739Z,43.25
2023-06-22T13:21:36.001Z,43.77
2023-06-22T13:24:38.746Z,43.54
2023-06-22T13:27:43.194Z,43.71
2023-06-22T13:30:48.243Z,43.84
2023-06-22T13:33:53.281Z,43.59
2023-06-22T13:36:56.016Z,44.10
2023-06-22T13:40:00.675Z,43.85
2023-06-22T13:43:04.869Z,43.69
2023-06-22T13:46:07.683Z,43.88
2023-06-22T13:49:10.458Z,43.80
2023-06-22T13:52:13.887Z,44.55
2023-06-22T13:55:16.800Z,44.21
2023-06-22T13:58:22.062Z,44.48
2023-06-22T14:01:24.764Z,44.91
2023-06-22T14:04:27.697Z,45.73
2023-06-22T14:07:30.552Z,45.55
2023-06-22T14:10:33.335Z,44.50
2023-06-22T14:13:37.845Z,44.29
2023-06-22T14:16:40.548Z,44.13
2023-06-22T14:19:43.341Z,44.71
2023-06-22T14:22:46.295Z,44.58
2023-06-22T14:25:48.983Z,44.78
2023-06-22T14:28:53.067Z,44.73
2023-06-22T14:31:55.921Z,44.53
2023-06-22T14:34:58.706Z,44.83
2023-06-22T14:38:01.471Z,44.55
2023-06-22T14:41:13.586Z,44.98
2023-06-22T14:44:18.699Z,44.50
2023-06-22T14:47:22.213Z,44.79
2023-06-22T14:50:25.083Z,46.16
2023-06-22T14:53:27.926Z,45.05
2023-06-22T14:56:31.942Z,44.57
2023-06-22T14:59:37.017Z,44.68
2023-06-22T15:02:39.868Z,44.51
2023-06-22T15:05:42.688Z,44.47
2023-06-22T15:08:45.524Z,44.51
2023-06-22T15:11:48.373Z,44.62
2023-06-22T15:14:52.472Z,44.45
2023-06-22T15:17:55.289Z,44.60
2023-06-22T15:20:59.679Z,45.42
2023-06-22T15:24:03.286Z,45.02
2023-06-22T15:27:06.450Z,45.30
2023-06-22T15:30:11.144Z,45.34
2023-06-22T15:33:13.886Z,45.17
2023-06-22T15:36:16.690Z,45.20
2023-06-22T15:39:19.438Z,45.07
2023-06-22T15:42:22.220Z,45.37
2023-06-22T15:45:26.789Z,43.94
2023-06-22T15:48:29.573Z,44.42
2023-06-22T15:51:32.298Z,43.76
2023-06-22T15:54:35.069Z,43.16
2023-06-22T15:57:37.879Z,43.27
2023-06-22T16:00:42.007Z,44.00
2023-06-22T16:03:44.872Z,44.47
2023-06-22T16:06:47.749Z,45.09
2023-06-22T16:09:50.479Z,45.22
2023-06-22T16:12:53.720Z,44.10
2023-06-22T16:15:57.922Z,44.40
2023-06-22T16:19:00.728Z,44.57
2023-06-22T16:22:03.551Z,44.20
2023-06-22T16:25:06.654Z,44.25
2023-06-22T16:28:09.377Z,43.70
2023-06-22T16:31:13.542Z,43.93
2023-06-22T16:34:16.717Z,43.75
2023-06-22T16:37:19.698Z,44.88
2023-06-22T16:40:22.562Z,44.97
2023-06-22T16:43:25.392Z,44.97
2023-06-22T16:46:29.635Z,45.01
2023-06-22T16:49:32.461Z,45.29
2023-06-22T16:52:35.618Z,45.56
2023-06-22T16:55:38.511Z,45.66
2023-06-22T16:58:44.648Z,45.91
2023-06-22T17:01:53.530Z,46.78
2023-06-22T17:04:56.877Z,46.83
2023-06-22T17:08:01.456Z,47.44
2023-06-22T17:11:04.362Z,48.70
2023-06-22T17:14:08.163Z,49.01
2023-06-22T17:17:13.036Z,49.11
2023-06-22T17:20:15.892Z,49.36
2023-06-22T17:23:18.662Z,49.47
2023-06-22T17:26:24.031Z,49.51
2023-06-22T17:29:31.444Z,49.77
2023-06-22T17:32:35.691Z,49.85
2023-06-22T17:35:47.368Z,49.38
2023-06-22T17:38:50.778Z,50.07
2023-06-22T17:41:53.564Z,49.53
2023-06-22T17:45:02.318Z,49.55
2023-06-22T17:48:09.845Z,49.16
2023-06-22T17:51:15.089Z,49.96
2023-06-22T17:54:17.900Z,50.17
2023-06-22T17:57:20.692Z,50.21
2023-06-22T18:00:23.645Z,50.33
2023-06-22T18:03:29.766Z,50.51
2023-06-22T18:06:34.052Z,50.37
2023-06-22T18:09:37.209Z,50.42
2023-06-22T18:12:40.383Z,50.77
2023-06-22T18:15:44.013Z,50.23
2023-06-22T18:18:48.534Z,50.45
2023-06-22T18:21:51.809Z,50.85
2023-06-22T18:24:56.708Z,50.04
2023-06-22T18:27:59.543Z,49.78
2023-06-22T18:31:03.666Z,49.92
2023-06-22T18:34:10.817Z,49.53
2023-06-22T18:37:15.066Z,50.18
2023-06-22T18:40:19.010Z,48.82
2023-06-22T18:43:22.710Z,48.54
2023-06-22T18:46:32.236Z,48.01
2023-06-22T18:49:48.098Z,48.22
2023-06-22T18:53:03.759Z,48.10
2023-06-22T18:56:13.662Z,47.95
2023-06-22T18:59:16.451Z,47.80
2023-06-22T19:02:34.395Z,47.92
2023-06-22T19:05:41.818Z,47.59
2023-06-22T19:09:02.996Z,48.04
2023-06-22T19:12:19.141Z,48.01
2023-06-22T19:15:22.344Z,48.53
2023-06-22T19:18:27.498Z,47.28
2023-06-22T19:21:31.604Z,46.93
2023-06-22T19:24:49.562Z,47.40
2023-06-22T19:27:56.904Z,47.58
2023-06-22T19:31:00.809Z,46.98
2023-06-22T19:34:05.726Z,47.43
2023-06-22T19:37:16.978Z,46.71
2023-06-22T19:40:22.984Z,46.92
2023-06-22T19:43:29.068Z,46.79
2023-06-22T19:46:32.122Z,46.96
2023-06-22T19:49:35.909Z,47.45
2023-06-22T19:52:41.228Z,47.28
2023-06-22T19:55:44.899Z,47.65
2023-06-22T19:58:47.749Z,47.00
2023-06-22T20:01:50.606Z,47.14
2023-06-22T20:04:53.365Z,46.81
2023-06-22T20:08:04.123Z,47.29
2023-06-22T20:11:08.641Z,46.83
2023-06-22T20:14:12.868Z,46.72
2023-06-22T20:17:16.628Z,46.85
2023-06-22T20:20:23.500Z,47.05
2023-06-22T20:23:29.604Z,46.74
2023-06-22T20:26:38.594Z,47.09
2023-06-22T20:29:42.574Z,46.50
2023-06-22T20:32:50.925Z,46.74
2023-06-22T20:35:53.752Z,46.85
2023-06-22T20:38:57.884Z,46.69
2023-06-22T20:42:01.047Z,46.60
2023-06-22T20:45:04.240Z,46.48
2023-06-22T20:48:08.559Z,46.70
2023-06-22T20:51:11.330Z,46.78
2023-06-22T20:54:18.529Z,46.86
2023-06-22T20:57:21.385Z,46.61
2023-06-22T21:00:24.487Z,46.59
2023-06-22T21:03:27.382Z,46.92
2023-06-22T21:06:30.365Z,46.80
2023-06-22T21:09:42.551Z,46.55
2023-06-22T21:12:54.221Z,46.52
2023-06-22T21:15:56.964Z,46.57
2023-06-22T21:18:59.758Z,46.81
2023-06-22T21:22:02.609Z,46.67
2023-06-22T21:25:08.144Z,46.39
2023-06-22T21:28:11.286Z,46.82
2023-06-22T21:31:14.156Z,46.66
2023-06-22T21:34:17.022Z,46.75
2023-06-22T21:37:19.853Z,47.03
2023-06-22T21:40:24.058Z,47.00
2023-06-22T21:43:26.901Z,46.83
2023-06-22T21:46:29.732Z,46.77
2023-06-22T21:49:32.659Z,46.90
2023-06-22T21:52:35.404Z,47.03
2023-06-22T21:55:39.535Z,47.21
2023-06-22T21:58:42.204Z,46.49
2023-06-22T22:01:45.017Z,46.67
2023-06-22T22:04:47.779Z,46.23
2023-06-22T22:07:50.618Z,46.27
2023-06-22T22:10:54.788Z,45.83
2023-06-22T22:13:57.526Z,45.89
2023-06-22T22:17:00.622Z,45.93
2023-06-22T22:20:06.032Z,46.03
2023-06-22T22:23:09.300Z,45.91
2023-06-22T22:26:13.356Z,45.81
2023-06-22T22:29:16.147Z,45.88
2023-06-22T22:32:18.975Z,45.96
2023-06-22T22:35:22.867Z,45.38
2023-06-22T22:38:25.624Z,45.66
2023-06-22T22:41:29.832Z,45.65
2023-06-22T22:44:32.639Z,45.64
2023-06-22T22:47:36.074Z,45.80
2023-06-22T22:50:38.830Z,46.08
2023-06-22T22:53:43.180Z,45.88
2023-06-22T22:56:47.351Z,46.06
2023-06-22T22:59:50.159Z,46.05
2023-06-22T23:02:53.207Z,45.96
2023-06-22T23:05:57.352Z,46.04
2023-06-22T23:09:00.337Z,45.76
2023-06-22T23:12:04.612Z,45.80
2023-06-22T23:15:08.043Z,45.66
2023-06-22T23:18:11.086Z,46.00
2023-06-22T23:21:13.852Z,45.85
2023-06-22T23:24:16.634Z,45.33
2023-06-22T23:27:22.142Z,45.75
2023-06-22T23:30:27.519Z,45.70
2023-06-22T23:33:30.872Z,45.65
2023-06-22T23:36:33.662Z,45.30
2023-06-22T23:39:36.774Z,45.86
2023-06-22T23:42:40.901Z,45.63
2023-06-22T23:45:43.703Z,45.52
2023-06-22T23:48:47.257Z,45.80
2023-06-22T23:51:50.062Z,45.93
2023-06-22T23:54:52.819Z,45.63
2023-06-22T23:57:57.633Z,45.60
